Time;durP1;ratioP1;P1;durP2;ratioP2;P2;SDS_P1;SDS_P2;PMS_P1;PMS_P2;Temp;Humidity;BMP_temperature;BMP_pressure;BME280_temperature;BME280_humidity;BME280_pressure;Samples;Min_cycle;Max_cycle;Signal;HPM_P1;HPM_P2
2021/04/24 00:02:18;;;;;;;12.00;6.60;;;4.80;52.00;;;;;;5067130;28;20300;-60
2021/04/24 00:04:43;;;;;;;12.40;5.70;;;4.80;52.40;;;;;;5068538;28;20179;-60
2021/04/24 00:07:10;;;;;;;14.13;5.70;;;4.70;52.50;;;;;;5068891;28;20483;-59
2021/04/24 00:09:36;;;;;;;12.07;6.33;;;4.70;52.80;;;;;;5067926;28;20202;-60
2021/04/24 00:12:03;;;;;;;11.70;5.90;;;4.70;52.90;;;;;;5070034;28;20405;-60
2021/04/24 00:14:29;;;;;;;11.17;5.83;;;4.70;53.20;;;;;;5087072;28;20415;-61
2021/04/24 00:16:55;;;;;;;17.47;7.47;;;4.60;53.60;;;;;;5066191;28;20960;-60
2021/04/24 00:19:20;;;;;;;16.90;6.90;;;4.60;53.70;;;;;;5070986;28;20440;-60
2021/04/24 00:21:46;;;;;;;18.20;7.10;;;4.60;53.90;;;;;;5068735;28;20596;-60
2021/04/24 00:24:12;;;;;;;20.27;6.60;;;4.50;54.30;;;;;;5069594;28;20604;-61
2021/04/24 00:26:40;;;;;;;12.97;6.20;;;4.50;54.80;;;;;;5077679;28;20222;-60
2021/04/24 00:29:06;;;;;;;12.07;6.03;;;4.50;54.90;;;;;;5063692;28;20312;-60
2021/04/24 00:31:31;;;;;;;12.03;6.50;;;4.40;55.20;;;;;;5070208;28;20789;-59
2021/04/24 00:33:57;;;;;;;14.80;6.07;;;4.30;55.60;;;;;;5069776;28;20569;-60
2021/04/24 00:36:25;;;;;;;15.57;6.50;;;4.30;56.30;;;;;;5068190;28;20869;-60
2021/04/24 00:38:51;;;;;;;12.03;6.30;;;4.20;56.50;;;;;;5067777;28;20182;-61
2021/04/24 00:41:17;;;;;;;14.30;6.00;;;4.20;56.90;;;;;;5073432;28;20431;-61
2021/04/24 00:43:42;;;;;;;12.80;5.30;;;4.10;57.00;;;;;;5061824;28;20220;-60
2021/04/24 00:46:15;;;;;;;10.97;5.70;;;4.10;57.20;;;;;;5098591;22;20613;-55
2021/04/24 00:48:41;;;;;;;10.47;5.90;;;4.00;57.70;;;;;;5067545;28;20195;-57
2021/04/24 00:51:08;;;;;;;16.50;6.33;;;4.00;58.30;;;;;;5068811;28;20447;-57
2021/04/24 00:53:35;;;;;;;13.27;5.93;;;3.90;59.00;;;;;;5069624;28;20411;-58
2021/04/24 00:56:03;;;;;;;14.67;6.10;;;3.90;59.50;;;;;;5065274;28;20460;-58
2021/04/24 00:58:29;;;;;;;11.00;5.73;;;3.90;60.30;;;;;;5072920;28;20407;-58
2021/04/24 01:00:55;;;;;;;8.77;5.80;;;3.80;61.30;;;;;;5063928;28;20543;-58
2021/04/24 01:03:21;;;;;;;9.37;4.97;;;3.80;61.50;;;;;;5063054;28;20942;-57
2021/04/24 01:05:47;;;;;;;11.40;5.93;;;3.80;61.80;;;;;;5061262;28;20470;-57
2021/04/24 01:08:13;;;;;;;10.93;7.10;;;3.80;62.10;;;;;;5066699;28;20186;-57
2021/04/24 01:10:45;;;;;;;12.30;4.83;;;3.80;61.90;;;;;;5057465;28;20441;-55
2021/04/24 01:13:13;;;;;;;14.13;5.13;;;3.70;62.80;;;;;;5064272;28;20444;-56
2021/04/24 01:15:39;;;;;;;15.20;6.00;;;3.70;63.20;;;;;;5060348;28;20480;-55
2021/04/24 01:18:08;;;;;;;11.43;5.60;;;3.70;63.70;;;;;;5064250;28;20490;-55
2021/04/24 01:20:35;;;;;;;12.93;5.80;;;3.70;63.70;;;;;;5068558;28;20412;-56
2021/04/24 01:23:01;;;;;;;11.73;5.43;;;3.60;63.40;;;;;;5061605;28;20429;-56
2021/04/24 01:25:28;;;;;;;12.60;6.10;;;3.60;64.30;;;;;;5061412;28;20832;-56
2021/04/24 01:27:56;;;;;;;14.60;5.90;;;3.50;64.60;;;;;;5067425;28;20658;-57
2021/04/24 01:30:27;;;;;;;7.10;4.97;;;3.50;65.10;;;;;;5063956;28;20517;-57
2021/04/24 01:32:54;;;;;;;11.07;5.63;;;3.40;65.30;;;;;;5068974;28;20418;-56
2021/04/24 01:35:24;;;;;;;9.70;5.17;;;3.40;66.10;;;;;;5067330;28;20409;-55
2021/04/24 01:37:50;;;;;;;13.40;5.87;;;3.40;66.70;;;;;;5066608;28;20397;-56
2021/04/24 01:40:17;;;;;;;14.00;4.90;;;3.30;67.00;;;;;;5066224;28;20423;-55
2021/04/24 01:42:44;;;;;;;12.43;6.23;;;3.30;67.40;;;;;;5070840;28;20405;-56
2021/04/24 01:45:11;;;;;;;10.63;5.30;;;3.30;67.70;;;;;;5071117;28;20430;-56
2021/04/24 01:47:39;;;;;;;16.33;5.67;;;3.30;67.60;;;;;;5071099;28;20523;-55
2021/04/24 01:50:10;;;;;;;8.00;5.60;;;3.30;67.70;;;;;;5061340;28;20431;-56
2021/04/24 01:52:37;;;;;;;10.13;5.40;;;3.20;67.60;;;;;;5070064;28;20415;-55
2021/04/24 01:55:30;;;;;;;10.17;5.30;;;3.20;68.00;;;;;;5071255;28;20400;-57
2021/04/24 01:57:58;;;;;;;10.00;5.60;;;3.20;68.70;;;;;;5063267;28;20549;-55
2021/04/24 02:00:31;;;;;;;10.57;6.27;;;3.10;68.40;;;;;;5065326;28;20420;-57
2021/04/24 02:02:59;;;;;;;13.60;5.53;;;3.10;69.10;;;;;;5065315;28;20715;-59
2021/04/24 02:05:25;;;;;;;10.63;6.03;;;3.00;69.70;;;;;;5068203;28;20413;-59
2021/04/24 02:08:04;;;;;;;10.73;5.50;;;2.90;70.50;;;;;;5068373;28;20418;-58
2021/04/24 02:10:30;;;;;;;7.80;5.30;;;2.90;71.20;;;;;;5064778;28;20663;-59
2021/04/24 02:12:57;;;;;;;12.10;5.30;;;2.90;71.40;;;;;;5070620;28;20435;-58
2021/04/24 02:15:23;;;;;;;9.73;5.60;;;2.80;71.50;;;;;;5069022;28;20174;-58
2021/04/24 02:17:49;;;;;;;13.73;5.67;;;2.80;72.00;;;;;;5070159;28;20561;-57
2021/04/24 02:20:16;;;;;;;13.00;5.33;;;2.80;72.00;;;;;;5068326;28;20502;-56
2021/04/24 02:22:42;;;;;;;9.70;5.37;;;2.80;72.50;;;;;;5065513;28;20179;-56
2021/04/24 02:25:09;;;;;;;10.13;6.13;;;2.70;72.60;;;;;;5067306;28;20450;-58
2021/04/24 02:27:35;;;;;;;10.17;6.00;;;2.70;73.00;;;;;;5067867;28;20447;-57
2021/04/24 02:30:00;;;;;;;8.13;5.43;;;2.60;73.40;;;;;;5067971;28;20972;-57
2021/04/24 02:32:31;;;;;;;16.30;6.20;;;2.60;74.00;;;;;;5068873;28;20423;-56
2021/04/24 02:34:58;;;;;;;18.33;6.73;;;2.60;74.30;;;;;;5069637;28;20170;-56
2021/04/24 02:37:24;;;;;;;13.53;5.37;;;2.60;74.50;;;;;;5062170;28;20467;-56
2021/04/24 02:39:52;;;;;;;9.83;5.30;;;2.60;75.00;;;;;;5082411;28;20419;-56
2021/04/24 02:42:20;;;;;;;8.07;5.50;;;2.50;75.30;;;;;;5069035;28;20505;-56
2021/04/24 02:44:47;;;;;;;16.70;5.90;;;2.50;75.30;;;;;;5065067;28;20903;-56
2021/04/24 02:47:14;;;;;;;8.77;5.90;;;2.50;76.10;;;;;;5068588;28;20484;-56
2021/04/24 02:49:40;;;;;;;10.03;6.20;;;2.40;76.90;;;;;;5067705;28;20824;-56
2021/04/24 02:52:06;;;;;;;12.37;6.27;;;2.40;77.00;;;;;;5068541;28;20820;-57
2021/04/24 02:54:33;;;;;;;12.67;6.10;;;2.40;77.10;;;;;;5064202;28;20430;-56
2021/04/24 02:56:59;;;;;;;8.13;5.37;;;2.40;77.30;;;;;;5063498;28;20423;-54
2021/04/24 02:59:25;;;;;;;12.87;5.90;;;2.30;77.30;;;;;;5067636;28;20417;-56
2021/04/24 03:01:51;;;;;;;13.00;6.00;;;2.30;77.30;;;;;;5069821;28;20427;-56
2021/04/24 03:04:17;;;;;;;18.70;6.60;;;2.30;77.40;;;;;;5066279;28;20184;-56
2021/04/24 03:06:44;;;;;;;12.90;6.90;;;2.30;78.00;;;;;;5066589;28;20815;-56
2021/04/24 03:09:10;;;;;;;13.30;6.87;;;2.30;78.40;;;;;;5069649;28;20934;-56
2021/04/24 03:11:36;;;;;;;19.20;6.90;;;2.20;78.40;;;;;;5065284;28;20530;-55
2021/04/24 03:14:03;;;;;;;16.80;5.77;;;2.20;78.80;;;;;;5069666;28;20173;-56
2021/04/24 03:16:29;;;;;;;14.93;6.80;;;2.10;79.50;;;;;;5073787;28;20430;-56
2021/04/24 03:18:55;;;;;;;12.50;5.93;;;2.20;79.70;;;;;;5069999;28;20454;-57
2021/04/24 03:21:22;;;;;;;22.47;6.77;;;2.10;79.40;;;;;;5073589;28;20192;-57
2021/04/24 03:23:48;;;;;;;14.53;6.63;;;2.10;79.60;;;;;;5071386;28;20270;-57
2021/04/24 03:26:14;;;;;;;12.43;6.37;;;2.10;80.20;;;;;;5074311;28;20427;-58
2021/04/24 03:28:40;;;;;;;14.57;6.50;;;2.10;80.30;;;;;;5086285;28;20465;-58
2021/04/24 03:31:05;;;;;;;11.67;6.10;;;2.10;80.30;;;;;;5090652;28;20183;-58
2021/04/24 03:33:34;;;;;;;14.10;6.53;;;2.10;80.10;;;;;;5078334;28;20185;-57
2021/04/24 03:35:59;;;;;;;19.23;7.47;;;2.10;80.20;;;;;;5061516;28;20201;-57
2021/04/24 03:38:25;;;;;;;15.03;7.23;;;2.10;80.30;;;;;;5069916;28;20418;-59
2021/04/24 03:40:51;;;;;;;14.33;6.27;;;2.10;80.00;;;;;;5064504;28;20191;-57
2021/04/24 03:43:17;;;;;;;12.80;5.87;;;2.10;79.90;;;;;;5067913;28;20542;-56
2021/04/24 03:45:44;;;;;;;13.67;6.63;;;2.10;79.50;;;;;;5064416;28;20303;-56
2021/04/24 03:48:10;;;;;;;11.67;6.40;;;2.10;79.50;;;;;;5066383;28;20744;-57
2021/04/24 03:50:36;;;;;;;12.33;5.63;;;2.00;79.80;;;;;;5063931;28;20446;-58
2021/04/24 03:53:02;;;;;;;9.70;5.80;;;2.00;80.30;;;;;;5067002;28;20647;-57
2021/04/24 03:55:28;;;;;;;11.60;5.80;;;2.00;80.70;;;;;;5074028;28;20230;-58
2021/04/24 03:57:54;;;;;;;12.57;6.20;;;1.90;80.70;;;;;;5091849;28;20439;-58
2021/04/24 04:00:22;;;;;;;9.47;5.80;;;1.90;80.80;;;;;;5090087;28;20154;-57
2021/04/24 04:03:17;;;;;;;12.83;5.80;;;1.90;81.40;;;;;;5066226;28;20864;-57
2021/04/24 04:05:45;;;;;;;13.27;5.97;;;1.90;81.90;;;;;;5066430;28;20798;-56
2021/04/24 04:08:13;;;;;;;17.53;6.60;;;1.80;82.30;;;;;;5086171;28;20502;-56
2021/04/24 04:10:41;;;;;;;10.30;5.23;;;1.80;82.40;;;;;;5067261;28;20439;-57
2021/04/24 04:13:07;;;;;;;12.70;5.77;;;1.70;82.20;;;;;;5071506;28;20868;-58
2021/04/24 04:15:33;;;;;;;8.80;5.33;;;1.70;81.90;;;;;;5071248;28;20453;-56
2021/04/24 04:18:05;;;;;;;13.67;5.60;;;1.70;82.20;;;;;;5077615;28;20740;-57
2021/04/24 04:20:32;;;;;;;26.10;6.77;;;1.70;81.90;;;;;;5073156;28;20436;-56
2021/04/24 04:22:58;;;;;;;15.07;6.57;;;1.70;82.60;;;;;;5079070;28;20407;-57
2021/04/24 04:25:25;;;;;;;14.63;5.70;;;1.60;82.60;;;;;;5083426;28;20411;-62
2021/04/24 04:27:51;;;;;;;10.80;5.10;;;1.60;82.70;;;;;;5074377;28;20489;-56
2021/04/24 04:30:18;;;;;;;9.80;5.90;;;1.60;83.60;;;;;;5080348;28;20442;-56
2021/04/24 04:32:44;;;;;;;19.10;5.90;;;1.50;84.30;;;;;;5063911;28;20419;-56
2021/04/24 04:35:11;;;;;;;10.20;6.13;;;1.50;84.70;;;;;;5063900;28;20748;-55
2021/04/24 04:37:37;;;;;;;14.17;6.57;;;1.50;84.70;;;;;;5059120;28;20435;-56
2021/04/24 04:40:05;;;;;;;11.93;5.90;;;1.60;84.80;;;;;;5054558;28;20588;-55
2021/04/24 04:42:31;;;;;;;11.93;6.33;;;1.60;84.80;;;;;;5068562;28;20580;-55
2021/04/24 04:44:57;;;;;;;15.20;6.00;;;1.60;84.70;;;;;;5066092;28;20918;-57
2021/04/24 04:47:22;;;;;;;13.00;5.90;;;1.60;84.10;;;;;;5066971;28;20810;-57
2021/04/24 04:49:48;;;;;;;13.20;6.50;;;1.60;84.20;;;;;;5091558;28;20414;-58
2021/04/24 04:52:14;;;;;;;22.10;6.63;;;1.60;84.40;;;;;;5062121;28;20206;-57
2021/04/24 04:54:40;;;;;;;8.57;5.63;;;1.60;83.20;;;;;;5058367;28;20186;-56
2021/04/24 04:57:06;;;;;;;13.20;6.20;;;1.60;82.50;;;;;;5067648;28;20461;-56
2021/04/24 04:59:31;;;;;;;16.40;6.40;;;1.70;82.40;;;;;;5076134;28;20805;-56
2021/04/24 05:01:58;;;;;;;16.17;6.10;;;1.70;82.90;;;;;;5069849;28;20177;-56
2021/04/24 05:04:23;;;;;;;20.80;7.00;;;1.70;82.30;;;;;;5079064;28;20181;-56
2021/04/24 05:06:49;;;;;;;16.63;6.30;;;1.80;82.20;;;;;;5065507;28;20458;-57
2021/04/24 05:09:18;;;;;;;13.93;7.73;;;1.90;81.80;;;;;;5056407;28;20204;-57
2021/04/24 05:11:44;;;;;;;14.10;7.00;;;2.00;82.10;;;;;;5054997;28;20781;-57
2021/04/24 05:14:09;;;;;;;12.07;6.23;;;2.10;81.60;;;;;;5056497;28;20480;-58
2021/04/24 05:16:35;;;;;;;12.67;6.87;;;2.20;81.30;;;;;;5069279;28;20438;-57
2021/04/24 05:19:01;;;;;;;12.10;6.70;;;2.30;80.70;;;;;;5063515;28;20265;-57
2021/04/24 05:21:27;;;;;;;11.37;6.07;;;2.40;79.90;;;;;;5077157;28;20191;-57
2021/04/24 05:23:53;;;;;;;13.30;6.50;;;2.40;79.90;;;;;;5073271;28;20235;-57
2021/04/24 05:26:19;;;;;;;13.30;6.83;;;2.50;79.80;;;;;;5066457;28;20458;-56
2021/04/24 05:28:45;;;;;;;15.37;6.30;;;2.60;80.10;;;;;;5059930;28;20455;-59
2021/04/24 05:31:10;;;;;;;11.37;6.20;;;2.70;79.20;;;;;;5075643;28;20236;-57
2021/04/24 05:33:36;;;;;;;13.80;6.17;;;2.80;79.10;;;;;;5059401;28;20405;-57
2021/04/24 05:36:07;;;;;;;25.00;6.90;;;2.90;79.00;;;;;;5062393;28;20202;-58
2021/04/24 05:38:32;;;;;;;16.10;6.83;;;3.00;77.50;;;;;;5067095;28;20431;-58
2021/04/24 05:40:58;;;;;;;16.77;6.57;;;3.10;76.60;;;;;;5066746;28;20428;-58
2021/04/24 05:43:24;;;;;;;19.37;6.53;;;3.20;75.30;;;;;;5085482;28;20171;-58
2021/04/24 05:45:50;;;;;;;15.53;5.87;;;3.20;75.50;;;;;;5059428;28;20852;-58
2021/04/24 05:48:16;;;;;;;12.77;6.17;;;3.30;74.60;;;;;;5053803;28;20307;-56
2021/04/24 05:50:42;;;;;;;12.60;6.60;;;3.40;74.10;;;;;;5073550;28;20188;-58
2021/04/24 05:53:08;;;;;;;15.30;6.87;;;3.50;74.60;;;;;;5059930;28;20175;-58
2021/04/24 05:55:34;;;;;;;11.07;7.43;;;3.60;74.80;;;;;;5064551;28;20754;-57
2021/04/24 05:58:00;;;;;;;15.87;6.97;;;3.70;74.30;;;;;;5067200;28;20440;-57
2021/04/24 06:00:26;;;;;;;19.23;7.83;;;3.80;73.20;;;;;;5056670;28;20250;-58
2021/04/24 06:02:52;;;;;;;17.20;6.90;;;3.90;71.40;;;;;;5053847;28;20961;-58
2021/04/24 06:05:18;;;;;;;13.80;6.70;;;4.00;69.60;;;;;;5072097;28;20447;-57
2021/04/24 06:07:45;;;;;;;16.90;7.47;;;4.10;69.40;;;;;;5061075;28;20514;-57
2021/04/24 06:10:13;;;;;;;19.80;7.90;;;4.10;69.60;;;;;;5075882;28;20524;-55
2021/04/24 06:12:40;;;;;;;20.50;7.57;;;4.20;69.60;;;;;;5079604;28;20843;-55
2021/04/24 06:15:08;;;;;;;13.87;7.50;;;4.30;70.30;;;;;;5059949;28;20455;-55
2021/04/24 06:17:33;;;;;;;15.07;6.77;;;4.40;70.70;;;;;;5061647;28;20455;-55
2021/04/24 06:19:59;;;;;;;21.63;7.17;;;4.50;70.10;;;;;;5055571;28;20462;-57
2021/04/24 06:22:25;;;;;;;11.37;6.90;;;4.60;69.90;;;;;;5061654;28;20179;-61
2021/04/24 06:24:51;;;;;;;20.07;6.60;;;4.80;69.30;;;;;;5065062;28;20215;-57
2021/04/24 06:27:17;;;;;;;12.53;6.70;;;4.90;68.40;;;;;;5069726;28;20740;-57
2021/04/24 06:29:42;;;;;;;9.77;5.93;;;4.90;67.10;;;;;;5074893;28;20459;-56
2021/04/24 06:32:09;;;;;;;10.43;6.30;;;5.00;67.70;;;;;;5069871;28;20173;-54
2021/04/24 06:34:35;;;;;;;8.07;5.90;;;5.10;68.10;;;;;;5057376;28;20248;-56
2021/04/24 06:37:01;;;;;;;14.40;7.00;;;5.20;65.90;;;;;;5068921;28;20838;-57
2021/04/24 06:39:26;;;;;;;14.40;6.40;;;5.30;65.50;;;;;;5084767;28;20169;-57
2021/04/24 06:41:52;;;;;;;10.20;6.47;;;5.40;66.50;;;;;;5074541;28;20178;-54
2021/04/24 06:44:18;;;;;;;11.30;6.43;;;5.50;66.70;;;;;;5085118;28;20716;-56
2021/04/24 06:46:44;;;;;;;14.80;6.03;;;5.70;66.20;;;;;;5086917;22;20507;-58
2021/04/24 06:49:11;;;;;;;19.63;7.50;;;5.80;64.50;;;;;;5069554;28;20202;-57
2021/04/24 06:51:37;;;;;;;12.70;6.03;;;5.90;64.10;;;;;;5061956;28;20258;-56
2021/04/24 06:54:03;;;;;;;16.97;7.50;;;6.00;64.00;;;;;;5065371;28;20490;-59
2021/04/24 06:56:28;;;;;;;15.43;8.33;;;6.10;63.60;;;;;;5067923;28;20440;-57
2021/04/24 06:58:54;;;;;;;15.20;7.30;;;6.30;62.20;;;;;;5066776;28;20433;-58
2021/04/24 07:01:20;;;;;;;16.80;7.40;;;6.40;61.30;;;;;;5064619;28;20228;-58
2021/04/24 07:03:45;;;;;;;16.13;8.17;;;6.50;59.80;;;;;;5068046;28;20639;-58
2021/04/24 07:06:11;;;;;;;17.30;8.07;;;6.70;59.70;;;;;;5063186;28;20746;-59
2021/04/24 07:08:37;;;;;;;20.23;7.43;;;6.80;58.70;;;;;;5067884;28;20788;-57
2021/04/24 07:11:02;;;;;;;14.43;7.30;;;6.90;58.80;;;;;;5067818;28;20662;-57
2021/04/24 07:13:28;;;;;;;23.10;7.73;;;7.10;59.30;;;;;;5064972;28;20170;-62
2021/04/24 07:15:54;;;;;;;16.83;6.80;;;7.30;59.60;;;;;;5067635;28;20178;-59
2021/04/24 07:18:19;;;;;;;21.60;7.10;;;7.50;57.80;;;;;;5064843;28;20178;-59
2021/04/24 07:20:45;;;;;;;15.37;7.00;;;7.60;57.00;;;;;;5065678;28;20209;-59
2021/04/24 07:23:11;;;;;;;12.00;6.80;;;7.70;56.40;;;;;;5070070;28;20183;-59
2021/04/24 07:25:37;;;;;;;15.70;8.60;;;7.90;57.00;;;;;;5066416;28;20191;-58
2021/04/24 07:28:04;;;;;;;13.60;7.40;;;8.10;56.80;;;;;;5067211;28;20232;-56
2021/04/24 07:30:30;;;;;;;12.83;6.90;;;8.30;56.60;;;;;;5056830;28;20465;-61
2021/04/24 07:32:56;;;;;;;14.43;8.20;;;8.40;56.30;;;;;;5060442;28;20440;-60
2021/04/24 07:35:22;;;;;;;16.10;6.90;;;8.60;55.20;;;;;;5066569;28;20436;-58
2021/04/24 07:37:47;;;;;;;17.47;6.73;;;8.80;54.90;;;;;;5063251;28;20186;-61
2021/04/24 07:40:13;;;;;;;18.53;6.63;;;9.00;54.10;;;;;;5063417;28;20190;-61
2021/04/24 07:42:40;;;;;;;20.63;7.40;;;9.10;52.60;;;;;;5066005;28;20178;-60
2021/04/24 07:45:07;;;;;;;17.83;7.70;;;9.30;52.00;;;;;;5068720;28;20775;-61
2021/04/24 07:47:32;;;;;;;17.10;7.83;;;9.50;51.40;;;;;;5064130;28;20464;-59
2021/04/24 07:49:58;;;;;;;20.90;8.17;;;9.70;51.00;;;;;;5063290;28;20465;-58
2021/04/24 07:52:24;;;;;;;14.00;7.53;;;9.90;50.60;;;;;;5067254;28;20182;-59
2021/04/24 07:54:50;;;;;;;18.70;9.00;;;10.10;50.50;;;;;;5059918;28;20189;-59
2021/04/24 07:57:16;;;;;;;15.77;8.50;;;10.30;50.50;;;;;;5066550;28;20284;-60
2021/04/24 07:59:43;;;;;;;20.40;8.13;;;10.50;50.20;;;;;;5062007;28;20203;-59
2021/04/24 08:02:12;;;;;;;25.90;8.50;;;10.70;49.30;;;;;;5063238;28;20472;-60
2021/04/24 08:04:37;;;;;;;15.10;7.80;;;10.90;48.30;;;;;;5058477;28;20437;-60
2021/04/24 08:07:03;;;;;;;17.50;8.07;;;11.00;47.40;;;;;;5054259;28;21506;-59
2021/04/24 08:09:29;;;;;;;28.43;11.20;;;11.20;46.70;;;;;;5055733;28;20691;-60
2021/04/24 08:11:55;;;;;;;15.63;7.43;;;11.30;46.60;;;;;;5059908;28;20775;-59
2021/04/24 08:14:20;;;;;;;17.03;6.80;;;11.50;45.90;;;;;;5059922;28;20184;-60
2021/04/24 08:16:46;;;;;;;15.87;6.20;;;11.70;45.20;;;;;;5059550;28;21008;-59
2021/04/24 08:19:12;;;;;;;17.33;6.40;;;11.80;44.00;;;;;;5062590;28;20642;-59
2021/04/24 08:21:39;;;;;;;15.50;6.50;;;11.90;43.00;;;;;;5060984;28;20821;-62
2021/04/24 08:24:06;;;;;;;11.93;5.70;;;12.00;42.10;;;;;;5067832;28;20193;-59
2021/04/24 08:26:32;;;;;;;10.83;6.17;;;12.10;43.00;;;;;;5066997;28;20450;-57
2021/04/24 08:28:59;;;;;;;13.30;7.00;;;12.20;42.10;;;;;;5065709;28;20452;-60
2021/04/24 08:31:25;;;;;;;15.77;6.97;;;12.30;42.10;;;;;;5061269;28;20171;-59
2021/04/24 08:33:51;;;;;;;14.87;5.97;;;12.40;41.70;;;;;;5063735;28;21027;-59
2021/04/24 08:36:17;;;;;;;10.60;5.90;;;12.60;41.30;;;;;;5057255;28;20866;-58
2021/04/24 08:38:43;;;;;;;13.57;5.67;;;12.80;41.20;;;;;;5061333;28;20436;-58
2021/04/24 08:41:09;;;;;;;10.30;5.60;;;13.00;40.20;;;;;;5065089;28;20182;-59
2021/04/24 08:43:39;;;;;;;12.00;5.53;;;13.20;39.50;;;;;;5055922;28;20475;-59
2021/04/24 08:46:06;;;;;;;13.83;6.33;;;13.30;38.90;;;;;;5057823;28;20997;-59
2021/04/24 08:48:33;;;;;;;11.37;6.20;;;13.50;39.10;;;;;;5052652;28;20510;-58
2021/04/24 08:51:02;;;;;;;10.80;6.07;;;13.70;38.70;;;;;;5060290;28;20432;-60
2021/04/24 08:53:28;;;;;;;16.07;6.80;;;13.80;38.20;;;;;;5060843;28;20517;-60
2021/04/24 08:55:54;;;;;;;14.83;7.10;;;14.00;38.50;;;;;;5056701;28;21025;-60
2021/04/24 08:58:20;;;;;;;16.20;6.70;;;14.10;37.30;;;;;;5057989;28;20694;-60
2021/04/24 09:00:48;;;;;;;8.60;6.00;;;14.10;36.50;;;;;;5062496;28;20456;-60
2021/04/24 09:03:19;;;;;;;11.13;6.23;;;14.20;37.30;;;;;;5064867;28;20432;-64
2021/04/24 09:05:45;;;;;;;12.70;6.80;;;14.20;36.30;;;;;;5083357;28;20444;-62
2021/04/24 09:08:11;;;;;;;12.13;6.00;;;14.30;36.40;;;;;;5085055;28;20436;-61
2021/04/24 09:10:44;;;;;;;10.97;5.70;;;14.40;36.40;;;;;;5079959;28;20182;-60
2021/04/24 09:13:15;;;;;;;9.63;5.57;;;14.60;36.90;;;;;;5088303;28;20434;-61
2021/04/24 09:15:41;;;;;;;10.87;5.40;;;14.70;36.20;;;;;;5087017;28;20452;-62
2021/04/24 09:18:09;;;;;;;12.67;5.90;;;14.90;35.40;;;;;;5079549;28;20515;-60
2021/04/24 09:20:56;;;;;;;11.37;5.00;;;15.00;33.50;;;;;;5061202;28;20163;-63
2021/04/24 09:23:36;;;;;;;13.07;4.77;;;15.10;35.10;;;;;;5061419;28;20460;-60
2021/04/24 09:26:10;;;;;;;6.87;4.50;;;15.20;33.20;;;;;;5063203;28;20440;-59
2021/04/24 09:28:44;;;;;;;8.40;4.97;;;15.30;33.00;;;;;;5058802;28;20980;-60
2021/04/24 09:31:23;;;;;;;6.27;4.80;;;15.40;33.50;;;;;;5065060;28;20448;-60
2021/04/24 09:33:54;;;;;;;13.60;5.23;;;15.50;33.30;;;;;;5058190;28;20473;-60
2021/04/24 09:36:20;;;;;;;7.27;4.70;;;15.70;34.10;;;;;;5064812;28;20463;-61
2021/04/24 09:38:52;;;;;;;8.27;5.10;;;15.90;33.60;;;;;;5063316;28;20586;-61
2021/04/24 09:41:31;;;;;;;8.57;5.50;;;16.00;32.40;;;;;;5052767;28;20489;-60
2021/04/24 09:43:58;;;;;;;9.47;4.93;;;16.20;32.50;;;;;;5058898;28;20524;-60
2021/04/24 09:46:56;;;;;;;7.43;4.40;;;16.30;32.70;;;;;;5060604;28;20471;-59
2021/04/24 09:49:28;;;;;;;14.20;5.10;;;16.50;33.00;;;;;;5058424;28;20460;-60
2021/04/24 09:51:57;;;;;;;14.13;4.90;;;16.60;32.10;;;;;;5059661;28;20425;-60
2021/04/24 09:54:25;;;;;;;7.00;4.40;;;16.70;31.40;;;;;;5064441;28;20954;-60
2021/04/24 09:56:59;;;;;;;9.13;4.30;;;16.70;30.20;;;;;;5059317;28;20490;-62
2021/04/24 09:59:25;;;;;;;9.33;4.77;;;16.70;30.80;;;;;;5059520;28;20436;-62
2021/04/24 10:02:02;;;;;;;6.43;3.83;;;16.80;30.20;;;;;;5063066;28;20478;-60
2021/04/24 10:04:29;;;;;;;8.07;3.67;;;17.00;30.00;;;;;;5059253;28;21406;-59
2021/04/24 10:06:55;;;;;;;7.87;3.97;;;17.10;29.00;;;;;;5063702;28;20451;-60
2021/04/24 10:09:26;;;;;;;9.23;3.77;;;17.20;27.50;;;;;;5066199;28;20498;-60
2021/04/24 10:12:00;;;;;;;6.13;3.10;;;17.30;27.00;;;;;;5068601;28;20251;-61
2021/04/24 10:14:31;;;;;;;6.03;3.20;;;17.50;27.10;;;;;;5056622;28;20900;-60
2021/04/24 10:17:01;;;;;;;5.80;3.67;;;17.70;26.50;;;;;;5063751;28;20459;-60
2021/04/24 10:19:28;;;;;;;9.20;3.40;;;17.70;24.40;;;;;;5060851;28;20487;-60
2021/04/24 10:21:54;;;;;;;10.33;4.70;;;17.80;25.10;;;;;;5061401;28;21019;-59
2021/04/24 10:24:23;;;;;;;8.23;3.97;;;17.80;25.50;;;;;;5065944;28;20442;-58
2021/04/24 10:26:49;;;;;;;6.37;3.10;;;17.80;26.00;;;;;;5069479;28;20468;-58
2021/04/24 10:29:17;;;;;;;5.40;3.53;;;18.00;27.10;;;;;;5059700;28;21992;-58
2021/04/24 10:31:43;;;;;;;5.60;3.70;;;18.10;27.10;;;;;;5063062;28;20889;-59
2021/04/24 10:34:09;;;;;;;7.13;3.70;;;18.20;27.20;;;;;;5069086;28;20435;-57
2021/04/24 10:36:36;;;;;;;4.90;3.67;;;18.40;27.10;;;;;;5067523;28;20897;-58
2021/04/24 10:39:09;;;;;;;7.77;4.33;;;18.50;27.00;;;;;;5069907;28;20521;-58
2021/04/24 10:41:43;;;;;;;8.67;3.90;;;18.60;25.40;;;;;;5062383;28;20418;-59
2021/04/24 10:44:14;;;;;;;8.30;4.47;;;18.70;26.00;;;;;;5064724;28;20444;-59
2021/04/24 10:46:47;;;;;;;6.97;4.37;;;18.80;26.70;;;;;;5056952;28;20473;-58
2021/04/24 10:49:30;;;;;;;9.97;5.27;;;18.80;27.40;;;;;;5069097;28;20488;-59
2021/04/24 10:52:07;;;;;;;9.63;4.83;;;18.90;27.40;;;;;;5071609;28;20403;-59
2021/04/24 10:54:38;;;;;;;6.13;4.50;;;19.00;27.80;;;;;;5069001;28;20441;-58
2021/04/24 10:57:38;;;;;;;8.43;4.40;;;19.10;27.20;;;;;;5070631;28;20532;-57
2021/04/24 11:00:11;;;;;;;6.27;4.10;;;19.00;25.60;;;;;;5065883;28;20487;-59
2021/04/24 11:02:41;;;;;;;11.00;5.30;;;19.00;26.00;;;;;;5065750;28;20515;-59
2021/04/24 11:05:27;;;;;;;8.20;4.80;;;19.20;26.80;;;;;;5069405;28;20439;-59
2021/04/24 11:08:08;;;;;;;13.40;5.60;;;19.30;27.30;;;;;;5069463;28;20479;-59
2021/04/24 11:10:40;;;;;;;9.00;4.73;;;19.40;28.30;;;;;;5065391;28;20426;-59
2021/04/24 11:13:06;;;;;;;10.90;4.87;;;19.60;29.00;;;;;;5053234;28;20428;-59
2021/04/24 11:15:33;;;;;;;9.97;5.67;;;19.70;28.50;;;;;;5053412;28;20520;-58
2021/04/24 11:17:59;;;;;;;7.80;5.17;;;19.80;28.60;;;;;;5068414;28;20704;-59
2021/04/24 11:21:02;;;;;;;8.23;4.93;;;19.80;26.80;;;;;;5067672;28;20444;-59
2021/04/24 11:23:42;;;;;;;11.63;5.47;;;19.60;25.50;;;;;;5070119;28;20409;-58
2021/04/24 11:26:20;;;;;;;8.80;4.67;;;19.40;25.60;;;;;;5050049;28;20433;-58
2021/04/24 11:28:59;;;;;;;9.67;4.60;;;19.40;27.10;;;;;;5067831;28;20452;-58
2021/04/24 11:31:43;;;;;;;5.87;4.33;;;19.50;28.30;;;;;;5062195;28;20435;-59
2021/04/24 11:34:37;;;;;;;7.90;4.43;;;19.80;27.60;;;;;;5060617;28;20421;-57
2021/04/24 11:37:18;;;;;;;6.13;4.50;;;19.90;25.60;;;;;;5069142;28;20428;-58
2021/04/24 11:40:18;;;;;;;13.90;5.07;;;20.00;27.20;;;;;;5068025;28;20436;-59
2021/04/24 11:43:08;;;;;;;7.77;5.07;;;20.20;27.50;;;;;;5063846;28;21025;-59
2021/04/24 11:45:49;;;;;;;6.90;4.73;;;20.40;29.20;;;;;;5058810;28;20429;-59
2021/04/24 11:48:16;;;;;;;5.43;4.10;;;20.70;28.50;;;;;;5066774;28;20456;-57
2021/04/24 11:50:43;;;;;;;10.43;5.00;;;20.80;27.60;;;;;;5052033;28;20418;-58
2021/04/24 11:53:10;;;;;;;8.47;4.70;;;21.10;27.00;;;;;;5066668;28;20882;-59
2021/04/24 11:55:38;;;;;;;8.07;5.50;;;21.30;27.00;;;;;;5067349;28;20435;-58
2021/04/24 11:58:10;;;;;;;6.60;4.43;;;21.50;26.70;;;;;;5067758;28;20445;-58
2021/04/24 12:00:37;;;;;;;8.90;5.17;;;21.60;25.40;;;;;;5066742;28;20456;-58
2021/04/24 12:03:04;;;;;;;8.03;5.00;;;21.60;24.80;;;;;;5064570;28;20852;-58
2021/04/24 12:05:29;;;;;;;7.70;4.93;;;21.70;25.60;;;;;;5068187;28;20900;-57
2021/04/24 12:07:55;;;;;;;10.30;5.73;;;21.90;26.00;;;;;;5062140;28;20506;-59
2021/04/24 12:10:28;;;;;;;11.90;5.03;;;22.00;25.10;;;;;;5063834;28;20675;-59
2021/04/24 12:13:07;;;;;;;7.50;4.37;;;22.10;25.90;;;;;;5063740;28;20194;-59
2021/04/24 12:15:32;;;;;;;7.40;5.00;;;22.20;25.80;;;;;;5056320;28;20398;-59
2021/04/24 12:18:04;;;;;;;7.47;4.73;;;22.30;25.70;;;;;;5052017;28;20498;-58
2021/04/24 12:20:39;;;;;;;6.17;4.77;;;22.50;26.00;;;;;;5063293;28;20174;-59
2021/04/24 12:23:12;;;;;;;7.30;5.40;;;22.50;23.50;;;;;;5064255;28;20438;-59
2021/04/24 12:25:39;;;;;;;14.23;5.30;;;22.40;23.20;;;;;;5066623;28;20444;-58
2021/04/24 12:28:07;;;;;;;7.47;5.43;;;22.40;23.20;;;;;;5066678;28;20432;-59
2021/04/24 12:30:35;;;;;;;9.40;6.10;;;22.40;24.70;;;;;;5067977;28;20814;-58
2021/04/24 12:33:04;;;;;;;8.73;5.20;;;22.40;23.70;;;;;;5068174;28;20413;-58
2021/04/24 12:35:51;;;;;;;7.47;5.13;;;22.40;22.70;;;;;;5066853;28;20580;-58
2021/04/24 12:38:20;;;;;;;50.67;5.97;;;22.50;24.90;;;;;;5046288;28;20444;-59
2021/04/24 12:40:47;;;;;;;10.10;4.90;;;22.70;25.00;;;;;;5060691;28;20483;-58
2021/04/24 12:43:15;;;;;;;5.83;4.33;;;22.90;25.00;;;;;;5051378;28;20609;-59
2021/04/24 12:45:45;;;;;;;8.17;4.93;;;23.10;25.00;;;;;;5061615;28;20436;-59
2021/04/24 12:48:17;;;;;;;8.37;4.70;;;23.30;25.00;;;;;;5066878;28;20490;-59
2021/04/24 12:50:44;;;;;;;8.33;5.50;;;23.50;25.10;;;;;;5059368;28;20429;-59
2021/04/24 12:53:26;;;;;;;9.53;5.57;;;23.70;25.20;;;;;;5066670;28;20436;-59